createdAt,value
2022-08-14T00:04:35.033Z,7.50
2022-08-14T00:07:06.930Z,7.07
2022-08-14T00:09:56.083Z,7.43
2022-08-14T00:12:33.615Z,7.63
2022-08-14T00:15:09.852Z,13.13
2022-08-14T00:17:47.986Z,8.13
2022-08-14T00:20:30.486Z,9.23
2022-08-14T00:23:12.656Z,7.93
2022-08-14T00:25:54.116Z,6.95
2022-08-14T00:28:43.593Z,8.73
2022-08-14T00:31:14.903Z,8.10
2022-08-14T00:33:51.407Z,7.68
2022-08-14T00:36:47.060Z,6.60
2022-08-14T00:39:14.810Z,6.82
2022-08-14T00:41:47.261Z,7.03
2022-08-14T00:44:21.371Z,5.97
2022-08-14T00:47:00.870Z,5.60
2022-08-14T00:49:30.266Z,6.00
2022-08-14T00:52:00.957Z,5.80
2022-08-14T00:54:29.095Z,5.70
2022-08-14T00:56:58.024Z,5.97
2022-08-14T00:59:27.499Z,5.82
2022-08-14T01:01:59.148Z,6.57
2022-08-14T01:04:50.864Z,6.82
2022-08-14T01:07:23.251Z,5.70
2022-08-14T01:09:53.119Z,6.68
2022-08-14T01:12:27.320Z,6.80
2022-08-14T01:15:09.880Z,6.18
2022-08-14T01:18:01.387Z,6.20
2022-08-14T01:20:47.904Z,5.97
2022-08-14T01:23:19.243Z,6.05
2022-08-14T01:25:51.872Z,6.03
2022-08-14T01:28:46.517Z,6.60
2022-08-14T01:31:12.426Z,7.10
2022-08-14T01:34:00.074Z,6.57
2022-08-14T01:36:36.962Z,6.32
2022-08-14T01:39:12.803Z,7.45
2022-08-14T01:41:42.579Z,6.35
2022-08-14T01:44:33.210Z,6.53
2022-08-14T01:47:21.993Z,6.20
2022-08-14T01:49:59.926Z,6.75
2022-08-14T01:52:33.991Z,6.95
2022-08-14T01:55:23.713Z,6.88
2022-08-14T01:58:02.048Z,6.18
2022-08-14T02:00:39.989Z,5.68
2022-08-14T02:03:08.705Z,5.97
2022-08-14T02:05:39.005Z,5.47
2022-08-14T02:08:09.705Z,6.00
2022-08-14T02:10:46.556Z,5.28
2022-08-14T02:13:18.975Z,5.65
2022-08-14T02:15:48.586Z,5.85
2022-08-14T02:18:18.569Z,6.25
2022-08-14T02:20:48.763Z,6.20
2022-08-14T02:23:28.934Z,6.07
2022-08-14T02:26:24.330Z,5.20
2022-08-14T02:28:57.176Z,5.45
2022-08-14T02:31:41.860Z,6.93
2022-08-14T02:34:21.790Z,6.15
2022-08-14T02:37:03.537Z,5.70
2022-08-14T02:39:37.015Z,6.05
2022-08-14T02:42:12.779Z,5.97
2022-08-14T02:44:49.447Z,6.20
2022-08-14T02:47:20.982Z,5.88
2022-08-14T02:49:50.707Z,6.00
2022-08-14T02:52:56.674Z,5.88
2022-08-14T02:55:11.525Z,6.47
2022-08-14T02:57:45.207Z,5.82
2022-08-14T03:00:22.408Z,6.05
2022-08-14T03:02:58.746Z,5.75
2022-08-14T03:05:32.789Z,6.00
2022-08-14T03:08:08.889Z,6.10
2022-08-14T03:10:42.030Z,6.75
2022-08-14T03:13:21.220Z,6.15
2022-08-14T03:15:55.556Z,6.10
2022-08-14T03:18:30.590Z,6.30
2022-08-14T03:21:02.050Z,5.78
2022-08-14T03:23:33.952Z,6.30
2022-08-14T03:26:07.157Z,5.88
2022-08-14T03:28:39.244Z,5.65
2022-08-14T03:31:13.196Z,5.30
2022-08-14T03:33:43.094Z,5.40
2022-08-14T03:37:39.231Z,5.72
2022-08-14T03:39:13.605Z,6.40
2022-08-14T03:41:47.613Z,6.40
2022-08-14T03:45:20.370Z,7.22
2022-08-14T03:47:06.847Z,6.88
2022-08-14T03:49:41.960Z,6.55
2022-08-14T03:52:37.855Z,5.60
2022-08-14T03:55:00.959Z,6.35
2022-08-14T03:57:32.853Z,6.18
2022-08-14T04:00:13.518Z,5.93
2022-08-14T04:02:59.105Z,5.68
2022-08-14T04:05:27.156Z,5.63
2022-08-14T04:08:08.568Z,5.78
2022-08-14T04:10:43.261Z,6.35
2022-08-14T04:13:12.444Z,6.63
2022-08-14T04:15:56.481Z,5.35
2022-08-14T04:18:33.734Z,6.53
2022-08-14T04:21:02.371Z,6.15
2022-08-14T04:23:33.326Z,5.88
2022-08-14T04:26:03.179Z,5.65
2022-08-14T04:29:08.975Z,5.90
2022-08-14T04:32:56.678Z,7.25
2022-08-14T04:34:17.053Z,6.65
2022-08-14T04:37:07.456Z,7.88
2022-08-14T04:39:57.403Z,6.05
2022-08-14T04:42:46.776Z,7.00
2022-08-14T04:45:20.927Z,7.07
2022-08-14T04:48:09.944Z,7.88
2022-08-14T04:50:44.705Z,6.78
2022-08-14T04:53:16.113Z,7.05
2022-08-14T04:55:49.936Z,8.00
2022-08-14T04:58:32.316Z,7.05
2022-08-14T05:01:02.486Z,6.30
2022-08-14T05:03:34.323Z,7.07
2022-08-14T05:06:38.161Z,7.53
2022-08-14T05:08:59.762Z,8.02
2022-08-14T05:11:28.434Z,8.52
2022-08-14T05:14:32.991Z,8.73
2022-08-14T05:16:46.795Z,8.45
2022-08-14T05:19:26.841Z,11.80
2022-08-14T05:22:16.476Z,12.13
2022-08-14T05:24:48.798Z,12.30
2022-08-14T05:27:23.216Z,13.40
2022-08-14T05:29:56.885Z,14.27
2022-08-14T05:32:27.722Z,12.98
2022-08-14T05:34:59.166Z,12.40
2022-08-14T05:37:28.502Z,12.63
2022-08-14T05:39:59.354Z,12.25
2022-08-14T05:42:31.788Z,12.75
2022-08-14T05:45:00.449Z,13.15
2022-08-14T05:47:39.379Z,12.38
2022-08-14T05:50:18.581Z,14.10
2022-08-14T05:52:48.655Z,16.08
2022-08-14T05:55:17.002Z,15.95
2022-08-14T05:57:52.727Z,17.48
2022-08-14T06:00:24.705Z,17.55
2022-08-14T06:02:58.385Z,17.85
2022-08-14T06:05:30.034Z,19.80
2022-08-14T06:07:58.633Z,19.25
2022-08-14T06:10:28.331Z,17.17
2022-08-14T06:12:58.014Z,18.13
2022-08-14T06:15:30.048Z,18.38
2022-08-14T06:18:00.243Z,18.63
2022-08-14T06:20:30.962Z,18.67
2022-08-14T06:23:00.079Z,18.35
2022-08-14T06:25:28.879Z,18.35
2022-08-14T06:27:58.145Z,18.58
2022-08-14T06:30:45.567Z,17.92
2022-08-14T06:33:15.728Z,17.95
2022-08-14T06:35:46.754Z,17.15
2022-08-14T06:38:17.517Z,17.20
2022-08-14T06:40:46.257Z,16.30
2022-08-14T06:43:15.689Z,16.67
2022-08-14T06:45:50.202Z,17.35
2022-08-14T06:48:24.692Z,18.13
2022-08-14T06:50:55.479Z,19.10
2022-08-14T06:53:28.255Z,18.75
2022-08-14T06:56:01.836Z,17.05
2022-08-14T06:58:32.093Z,16.92
2022-08-14T07:01:25.062Z,17.63
2022-08-14T07:04:22.611Z,15.85
2022-08-14T07:06:55.686Z,16.33
2022-08-14T07:09:28.254Z,16.17
2022-08-14T07:12:36.028Z,15.73
2022-08-14T07:15:01.482Z,16.30
2022-08-14T07:17:31.968Z,16.08
2022-08-14T07:20:02.409Z,15.77
2022-08-14T07:22:50.024Z,13.75
2022-08-14T07:25:19.851Z,14.35
2022-08-14T07:27:48.126Z,13.55
2022-08-14T07:30:34.208Z,13.57
2022-08-14T07:33:02.992Z,13.75
2022-08-14T07:35:42.997Z,12.85
2022-08-14T07:38:22.445Z,13.32
2022-08-14T07:40:53.288Z,12.82
2022-08-14T07:43:23.083Z,12.55
2022-08-14T07:45:54.134Z,12.48
2022-08-14T07:48:24.833Z,13.63
2022-08-14T07:50:59.470Z,12.65
2022-08-14T07:53:34.064Z,13.68
2022-08-14T07:56:09.244Z,12.93
2022-08-14T07:58:51.262Z,12.70
2022-08-14T08:01:20.869Z,12.43
2022-08-14T08:03:54.248Z,12.27
2022-08-14T08:06:29.501Z,11.05
2022-08-14T08:09:03.219Z,10.85
2022-08-14T08:11:37.473Z,10.68
2022-08-14T08:14:10.681Z,10.15
2022-08-14T08:16:47.422Z,11.68
2022-08-14T08:19:19.714Z,11.02
2022-08-14T08:21:48.155Z,9.90
2022-08-14T08:24:18.466Z,10.73
2022-08-14T08:26:46.932Z,11.15
2022-08-14T08:29:22.498Z,10.95
2022-08-14T08:32:01.681Z,9.63
2022-08-14T08:34:45.334Z,10.95
2022-08-14T08:37:14.498Z,10.25
2022-08-14T08:40:01.862Z,11.15
2022-08-14T08:42:41.495Z,10.45
2022-08-14T08:45:17.332Z,10.40
2022-08-14T08:47:46.578Z,11.02
2022-08-14T08:50:31.480Z,11.00
2022-08-14T08:53:02.114Z,10.60
2022-08-14T08:55:34.177Z,10.95
2022-08-14T08:58:05.299Z,10.73
2022-08-14T09:00:35.523Z,10.48
2022-08-14T09:03:10.089Z,10.60
2022-08-14T09:05:49.776Z,10.75
2022-08-14T09:08:31.194Z,11.10
2022-08-14T09:11:18.471Z,10.18
2022-08-14T09:13:49.943Z,10.68
2022-08-14T09:16:21.831Z,11.00
2022-08-14T09:18:53.538Z,10.20
2022-08-14T09:21:24.075Z,9.98
2022-08-14T09:24:26.378Z,10.52
2022-08-14T09:26:49.349Z,11.00
2022-08-14T09:29:23.240Z,9.90
2022-08-14T09:31:57.752Z,10.27
2022-08-14T09:34:58.213Z,10.35
2022-08-14T09:37:40.493Z,10.23
2022-08-14T09:40:21.153Z,10.23
2022-08-14T09:42:59.622Z,10.23
2022-08-14T09:45:40.016Z,9.50
2022-08-14T09:48:16.515Z,9.93
2022-08-14T09:50:50.471Z,9.52
2022-08-14T09:54:18.852Z,9.18
2022-08-14T09:56:30.321Z,7.32
2022-08-14T09:59:15.202Z,7.15
2022-08-14T10:01:46.016Z,6.55
2022-08-14T10:04:34.911Z,6.78
2022-08-14T10:07:06.335Z,6.63
2022-08-14T10:10:00.172Z,6.40
2022-08-14T10:12:44.731Z,6.40
2022-08-14T10:15:19.870Z,6.55
2022-08-14T10:17:49.261Z,6.10
2022-08-14T10:20:39.872Z,6.18
2022-08-14T10:23:18.309Z,6.20
2022-08-14T10:25:50.759Z,6.72
2022-08-14T10:29:03.659Z,6.22
2022-08-14T10:31:25.465Z,6.05
2022-08-14T10:34:13.286Z,5.70
2022-08-14T10:36:50.202Z,5.93
2022-08-14T10:39:30.851Z,5.78
2022-08-14T10:42:16.640Z,5.82
2022-08-14T10:44:52.465Z,6.10
2022-08-14T10:47:39.943Z,6.00
2022-08-14T10:50:14.953Z,6.22
2022-08-14T10:52:44.993Z,6.47
2022-08-14T10:55:15.760Z,6.50
2022-08-14T10:57:52.440Z,6.50
2022-08-14T11:00:30.191Z,6.53
2022-08-14T11:03:09.656Z,6.82
2022-08-14T11:05:43.320Z,6.57
2022-08-14T11:08:12.534Z,7.07
2022-08-14T11:10:45.038Z,6.50
2022-08-14T11:13:18.715Z,6.88
2022-08-14T11:15:48.803Z,7.32
2022-08-14T11:18:20.332Z,7.18
2022-08-14T11:21:01.911Z,7.47
2022-08-14T11:23:37.729Z,7.43
2022-08-14T11:26:08.044Z,7.30
2022-08-14T11:28:48.144Z,7.25
2022-08-14T11:31:20.024Z,7.28
2022-08-14T11:33:57.619Z,7.57
2022-08-14T11:36:56.901Z,7.20
2022-08-14T11:39:33.746Z,7.93
2022-08-14T11:42:57.236Z,6.75
2022-08-14T11:44:56.728Z,6.63
2022-08-14T11:47:35.551Z,6.22
2022-08-14T11:50:34.045Z,6.63
2022-08-14T11:53:08.006Z,5.97
2022-08-14T11:55:39.781Z,5.97
2022-08-14T11:58:10.506Z,6.25
2022-08-14T12:00:48.390Z,6.65
2022-08-14T12:03:19.832Z,6.13
2022-08-14T12:06:06.413Z,5.95
2022-08-14T12:08:56.990Z,6.15
2022-08-14T12:11:43.519Z,5.85
2022-08-14T12:14:13.456Z,6.07
2022-08-14T12:17:05.141Z,6.25
2022-08-14T12:19:44.221Z,6.45
2022-08-14T12:22:17.697Z,6.10
2022-08-14T12:24:58.512Z,6.22
2022-08-14T12:27:37.859Z,6.60
2022-08-14T12:30:11.357Z,6.05
2022-08-14T12:32:41.802Z,5.25
2022-08-14T12:35:11.017Z,5.75
2022-08-14T12:37:49.349Z,6.38
2022-08-14T12:40:24.808Z,5.43
2022-08-14T12:42:56.547Z,5.70
2022-08-14T12:45:33.453Z,5.25
2022-08-14T12:48:21.675Z,5.00
2022-08-14T12:50:52.582Z,5.35
2022-08-14T12:53:22.550Z,5.47
2022-08-14T12:56:21.691Z,5.65
2022-08-14T12:58:51.975Z,4.95
2022-08-14T13:01:22.233Z,4.88
2022-08-14T13:03:52.049Z,4.97
2022-08-14T13:06:23.241Z,5.47
2022-08-14T13:09:00.244Z,5.18
2022-08-14T13:11:35.280Z,4.90
2022-08-14T13:14:05.442Z,4.97
2022-08-14T13:16:38.850Z,5.38
2022-08-14T13:19:11.258Z,4.90
2022-08-14T13:22:05.367Z,4.80
2022-08-14T13:24:33.441Z,5.00
2022-08-14T13:27:04.824Z,5.03
2022-08-14T13:29:40.457Z,4.90
2022-08-14T13:32:10.117Z,5.00
2022-08-14T13:34:41.117Z,4.90
2022-08-14T13:37:09.600Z,4.55
2022-08-14T13:39:40.083Z,5.22
2022-08-14T13:42:13.754Z,4.78
2022-08-14T13:44:43.394Z,4.57
2022-08-14T13:47:15.331Z,4.35
2022-08-14T13:49:57.899Z,4.55
2022-08-14T13:52:52.798Z,4.28
2022-08-14T13:55:19.745Z,4.00
2022-08-14T13:57:49.891Z,4.30
2022-08-14T14:00:36.069Z,4.15
2022-08-14T14:03:22.837Z,3.83
2022-08-14T14:05:54.896Z,3.97
2022-08-14T14:08:46.045Z,4.28
2022-08-14T14:11:16.558Z,4.10
2022-08-14T14:13:46.507Z,3.83
2022-08-14T14:16:26.689Z,4.68
2022-08-14T14:19:07.991Z,4.20
2022-08-14T14:21:40.370Z,4.20
2022-08-14T14:24:15.090Z,4.40
2022-08-14T14:26:47.733Z,4.43
2022-08-14T14:29:24.150Z,4.80
2022-08-14T14:31:55.122Z,4.50
2022-08-14T14:34:30.708Z,4.43
2022-08-14T14:37:02.872Z,4.95
2022-08-14T14:39:37.552Z,4.50
2022-08-14T14:42:13.750Z,4.90
2022-08-14T14:44:53.116Z,4.88
2022-08-14T14:47:26.423Z,4.35
2022-08-14T14:49:55.860Z,4.15
2022-08-14T14:52:27.834Z,4.28
2022-08-14T14:54:58.902Z,4.60
2022-08-14T14:57:34.833Z,4.32
2022-08-14T15:00:06.589Z,4.35
2022-08-14T15:02:42.021Z,4.43
2022-08-14T15:05:11.470Z,4.30
2022-08-14T15:07:41.951Z,4.00
2022-08-14T15:10:27.963Z,4.55
2022-08-14T15:13:03.576Z,4.40
2022-08-14T15:15:33.402Z,4.25
2022-08-14T15:18:36.294Z,3.90
2022-08-14T15:20:56.240Z,4.43
2022-08-14T15:23:25.326Z,4.00
2022-08-14T15:26:03.228Z,4.65
2022-08-14T15:28:38.843Z,4.22
2022-08-14T15:31:08.143Z,4.28
2022-08-14T15:34:00.897Z,4.53
2022-08-14T15:36:44.382Z,4.60
2022-08-14T15:39:14.379Z,4.22
2022-08-14T15:41:43.358Z,4.70
2022-08-14T15:44:25.309Z,4.47
2022-08-14T15:46:55.009Z,4.57
2022-08-14T15:49:24.278Z,4.13
2022-08-14T15:51:52.405Z,4.57
2022-08-14T15:54:22.024Z,4.70
2022-08-14T15:56:58.462Z,4.55
2022-08-14T15:59:49.649Z,4.85
2022-08-14T16:02:24.623Z,5.00
2022-08-14T16:04:56.232Z,4.82
2022-08-14T16:07:52.561Z,4.97
2022-08-14T16:10:29.629Z,5.72
2022-08-14T16:12:57.961Z,4.90
2022-08-14T16:15:28.645Z,5.03
2022-08-14T16:17:59.178Z,5.30
2022-08-14T16:20:41.733Z,5.32
2022-08-14T16:23:12.545Z,5.22
2022-08-14T16:25:44.924Z,5.40
2022-08-14T16:28:27.391Z,5.53
2022-08-14T16:30:57.960Z,6.15
2022-08-14T16:33:56.449Z,5.55
2022-08-14T16:36:30.051Z,6.03
2022-08-14T16:39:01.924Z,5.95
2022-08-14T16:41:30.846Z,6.47
2022-08-14T16:44:02.525Z,6.57
2022-08-14T16:46:38.257Z,5.78
2022-08-14T16:49:12.585Z,6.03
2022-08-14T16:51:42.630Z,5.65
2022-08-14T16:54:34.448Z,5.68
2022-08-14T16:57:22.359Z,5.57
2022-08-14T16:59:52.366Z,5.65
2022-08-14T17:02:39.821Z,5.30
2022-08-14T17:05:19.325Z,5.15
2022-08-14T17:08:32.796Z,5.00
2022-08-14T17:11:04.831Z,5.30
2022-08-14T17:13:58.796Z,5.78
2022-08-14T17:16:28.718Z,5.78
2022-08-14T17:19:01.699Z,5.20
2022-08-14T17:21:33.968Z,5.55
2022-08-14T17:24:58.121Z,5.28
2022-08-14T17:26:56.121Z,4.82
2022-08-14T17:29:31.312Z,5.30
2022-08-14T17:32:02.574Z,6.30
2022-08-14T17:34:49.594Z,6.57
2022-08-14T17:37:27.845Z,6.03
2022-08-14T17:40:15.295Z,5.95
2022-08-14T17:43:04.955Z,6.68
2022-08-14T17:45:47.038Z,5.90
2022-08-14T17:49:15.869Z,13.18
2022-08-14T17:51:23.806Z,12.20
2022-08-14T17:54:02.483Z,5.97
2022-08-14T17:56:33.522Z,6.10
2022-08-14T17:59:04.196Z,5.47
2022-08-14T18:01:38.737Z,5.97
2022-08-14T18:04:28.238Z,5.53
2022-08-14T18:07:08.808Z,5.60
2022-08-14T18:09:56.960Z,5.63
2022-08-14T18:12:36.974Z,5.28
2022-08-14T18:15:15.941Z,5.63
2022-08-14T18:17:52.855Z,4.93
2022-08-14T18:21:42.799Z,5.07
2022-08-14T18:23:14.346Z,5.13
2022-08-14T18:25:49.289Z,5.20
2022-08-14T18:28:50.938Z,5.22
2022-08-14T18:31:43.625Z,4.93
2022-08-14T18:34:31.261Z,5.47
2022-08-14T18:37:16.765Z,5.45
2022-08-14T18:40:01.901Z,5.63
2022-08-14T18:42:45.905Z,6.50
2022-08-14T18:45:19.019Z,5.50
2022-08-14T18:48:28.671Z,5.47
2022-08-14T18:51:14.512Z,5.15
2022-08-14T18:53:59.298Z,5.40
2022-08-14T18:57:00.152Z,5.80
2022-08-14T18:59:35.416Z,5.72
2022-08-14T19:02:46.624Z,5.57
2022-08-14T19:05:54.930Z,5.57
2022-08-14T19:08:26.585Z,6.10
2022-08-14T19:10:59.425Z,5.78
2022-08-14T19:13:48.560Z,5.80
2022-08-14T19:16:26.062Z,5.47
2022-08-14T19:19:00.158Z,6.13
2022-08-14T19:21:32.512Z,5.88
2022-08-14T19:24:27.812Z,6.10
2022-08-14T19:27:19.326Z,6.95
2022-08-14T19:30:20.372Z,7.72
2022-08-14T19:32:53.109Z,7.03
2022-08-14T19:35:50.216Z,6.35
2022-08-14T19:38:59.154Z,5.63
2022-08-14T19:41:30.153Z,5.78
2022-08-14T19:44:10.356Z,6.80
2022-08-14T19:47:01.197Z,6.63
2022-08-14T19:50:30.216Z,6.10
2022-08-14T19:52:25.845Z,6.50
2022-08-14T19:54:58.072Z,5.60
2022-08-14T19:57:30.816Z,6.15
2022-08-14T20:00:29.415Z,5.57
2022-08-14T20:03:11.715Z,6.18
2022-08-14T20:05:45.850Z,5.88
2022-08-14T20:11:01.102Z,6.57
2022-08-14T20:11:42.977Z,6.00
2022-08-14T20:14:08.811Z,6.88
2022-08-14T20:16:41.671Z,5.93
2022-08-14T20:19:15.333Z,5.85
2022-08-14T20:22:04.418Z,6.50
2022-08-14T20:24:41.450Z,6.43
2022-08-14T20:27:39.978Z,6.45
2022-08-14T20:30:33.741Z,6.55
2022-08-14T20:33:10.582Z,6.68
2022-08-14T20:35:46.946Z,7.00
2022-08-14T20:38:29.266Z,6.53
2022-08-14T20:41:05.893Z,6.65
2022-08-14T20:43:55.326Z,6.10
2022-08-14T20:46:30.093Z,6.18
2022-08-14T20:49:01.212Z,6.05
2022-08-14T20:51:43.391Z,5.90
2022-08-14T20:54:33.864Z,5.93
2022-08-14T20:57:08.065Z,6.68
2022-08-14T20:59:43.537Z,6.70
2022-08-14T21:02:29.465Z,6.07
2022-08-14T21:05:00.609Z,6.35
2022-08-14T21:07:50.508Z,6.22
2022-08-14T21:10:33.403Z,6.32
2022-08-14T21:13:26.442Z,6.40
2022-08-14T21:15:57.720Z,6.10
2022-08-14T21:18:29.536Z,6.50
2022-08-14T21:20:59.193Z,6.72
2022-08-14T21:23:32.794Z,10.85
2022-08-14T21:26:01.577Z,6.32
2022-08-14T21:28:35.373Z,6.60
2022-08-14T21:31:05.580Z,6.13
2022-08-14T21:33:36.394Z,6.68
2022-08-14T21:36:07.886Z,6.57
2022-08-14T21:38:42.482Z,5.70
2022-08-14T21:41:41.245Z,6.45
2022-08-14T21:44:17.840Z,6.47
2022-08-14T21:46:50.803Z,7.00
2022-08-14T21:49:23.597Z,7.50
2022-08-14T21:51:58.870Z,6.97
2022-08-14T21:54:49.723Z,6.60
2022-08-14T21:57:55.626Z,6.72
2022-08-14T22:00:35.658Z,6.40
2022-08-14T22:03:03.505Z,6.70
2022-08-14T22:05:33.776Z,6.65
2022-08-14T22:08:06.621Z,7.32
2022-08-14T22:10:35.878Z,6.68
2022-08-14T22:13:05.477Z,6.50
2022-08-14T22:15:35.530Z,7.03
2022-08-14T22:18:05.582Z,7.63
2022-08-14T22:20:36.361Z,6.97
2022-08-14T22:23:08.545Z,6.90
2022-08-14T22:25:41.259Z,6.35
2022-08-14T22:28:12.410Z,6.72
2022-08-14T22:30:41.772Z,6.78
2022-08-14T22:33:13.478Z,7.40
2022-08-14T22:35:43.650Z,6.72
2022-08-14T22:38:37.023Z,6.88
2022-08-14T22:41:27.682Z,7.07
2022-08-14T22:43:51.117Z,7.18
2022-08-14T22:46:20.343Z,6.78
2022-08-14T22:48:51.021Z,6.90
2022-08-14T22:51:22.998Z,7.07
2022-08-14T22:53:54.014Z,6.90
2022-08-14T22:56:30.177Z,6.78
2022-08-14T22:59:00.167Z,6.90
2022-08-14T23:01:55.596Z,7.35
2022-08-14T23:04:35.693Z,7.03
2022-08-14T23:07:22.295Z,7.13
2022-08-14T23:09:56.902Z,6.80
2022-08-14T23:12:28.580Z,6.82
2022-08-14T23:14:57.850Z,7.28
2022-08-14T23:17:27.582Z,6.63
2022-08-14T23:20:19.120Z,6.57
2022-08-14T23:22:52.450Z,7.65
2022-08-14T23:25:45.805Z,7.65
2022-08-14T23:28:34.881Z,6.85
2022-08-14T23:31:01.753Z,7.10
2022-08-14T23:33:30.032Z,7.10
2022-08-14T23:36:03.261Z,6.55
2022-08-14T23:38:33.454Z,7.25
2022-08-14T23:41:04.225Z,7.13
2022-08-14T23:43:32.860Z,8.30
2022-08-14T23:46:01.461Z,7.55
2022-08-14T23:48:46.434Z,7.20
2022-08-14T23:51:17.917Z,7.45
2022-08-14T23:53:52.041Z,7.70
2022-08-14T23:56:30.238Z,8.05
2022-08-14T23:59:01.176Z,7.25
